Ridgeway, Montana
Current Conditions -  °F | °C
As of 9:35 AM on Tuesday 21 Oct 2014 (Local Time) from KW43 Reporting Station
Clear Clear  
Wind Chill: 68°   Ceiling: Unl
Heat Index: 68°   Visibility: 10mi
Dew Point: 36°   Wind: 23mph
Humidity: 30%   Direction: 200°SSW
Pressure: 29.83"   Gusts: 26mph
Location:  45.49°N, 104.51°W
Report Text: KW43 211535Z AUTO 20020G23KT 10SM CLR 20/02 A2983 RMK AO2
Loading
Personal Weather Stations






























Interactive Weather Map
Tropical Storm Tracking
New forecast layout! Learn more

10-Day Weather Forecast

Advertisements
Track Severe Weather on mobile